Flight AZ1799

 

  • Submitted By: Diego Paparella
  • Departure Airport: Leonardo da Vinci (LIRF)
  • Arrival Airport: Palermo Airport (LICJ)
  • Aircraft: A319-112 (EI-IMB)
  • Flight Time: 01.05.15
  • Date Submitted: 27/11/2014
  • Route: PEPIX UM727 GIANO
  • Status: Accepted
Flight Details
Gross Revenue:
(130 load / € 280.00 per unit
€ 36,400.00
Fuel Cost:
(2447.13 fuel used @ 1.1 / unit)
€ 2,691.84
Flight Details

 

  • Log Data: DEP/LIRF STAND/405 RWY/25 SID/SOS5A.PEPI7B. /// ARR/LICJ STAR/GIANO2B APP/VOR Z RWY/07 STAND/212
  • Network: IVAO
Additional Log Information:

 

View Log

[16:22] - Airbus A319 Alitalia EI-IMD
[16:22] - Flight AZ1799 is ready to depart LIRF with a final destination of LICJ.
[16:22] - Parking Brake Applied
[16:22] - Boarding
[16:23] - Parking Brake Released
[16:25] - Parking Brake Applied
[16:26] - Flaps to position 2
[16:27] - Parking Brake Released
[16:28] - Taxiing to Runway
[16:33] - Taking Off with 130 passengers on board
[16:34] - Take off at 148kts, with a pitch of 11deg and 6249kgs of fuel on board
[16:34] - Wind Heading 122 | Wind Speed 10kts | Temperature 16 deg C
[16:34] - Climbing to TOC
[16:34] - Gear up at 778AGL
[16:34] - Flaps to position 0 at 1955ft and 185kts
[16:52] - TOC reached
[16:52] - Cruise started
[16:53] - TOD reached
[16:53] - Descending to destination
[17:08] - Spoilers ON 10259ft, hdg 189 and 254kts
[17:08] - Spoilers OFF 9990ft, hdg 177 and 253kts
[17:09] - Spoilers ON 7818ft, hdg 170 and 256kts
[17:11] - Landing Shortly
[17:12] - Flaps to position 1 at 2047ft and 205kts
[17:13] - Flaps to position 3 at 1965ft and 162kts
[17:13] - Flaps to position 4 at 1965ft and 161kts
[17:13] - Flaps to position 5 at 1962ft and 160kts
[17:13] - Spoilers OFF 1880ft, hdg 99 and 136kts
[17:13] - Gear down at 1952AGL
[17:18] - Landed at 126 kias, at -252fpm. With 4359kgs of fuel onboard and a pitch angle of 4deg.
[17:18] - Wind Heading 62 | Wind Speed 11kts | Temperature 18 deg C
[17:18] - Spoilers ON 17ft, hdg 69 and 126kts
[17:19] - Taxiing to Gate
[17:20] - Flaps to position 0
[17:24] - Parking Brake Applied
[17:24] - Arrived safely at LICJ. We hope you enjoyed your flight!
[17:25] - Parking Brake Released
[17:25] - Taxiing to Gate
[17:27] - Parking Brake Applied
[17:27] - Arrived safely at LICJ. We hope you enjoyed your flight!
[17:28] - Airbus A319 Alitalia EI-IMD
[17:28] - MaxSim Rate: 1x
[17:28] - ver 1.0.1.8

Comments

Commenter Comment
Diego Paparella PBN/A1B1C1D1O1S1 NAV/RNVD1E2A1 DOF/141127 REG/EIEIB OPR/ALITALIA VIRTUAL RVR/100 RMK/TCAS
Diego Paparella LIRF 271450Z 12010G22KT 8000 RA FEW015CB BKN025 17/16 Q1012 WS RWY 16R NOSIG
Diego Paparella LICJ 271550Z 06011KT CAVOK 19/14 Q1012
Route Map